Terminal Aerodrome Forecast
Issued by NWS Sioux Falls, SD

Home | Current Version | Previous Version | Text Only | Print | Product List | Glossary On
Versions: 1 2 3 4 5 6 7 8 9 10 11 12 13 14 15
000
FTUS43 KFSD 181722
TAFSUX
TAF
KSUX 181722Z 1818/1918 22007KT P6SM FEW250
     FM181900 23011KT P6SM FEW250
     FM182300 22007KT P6SM FEW250
     FM190500 25006KT P6SM SCT200
     FM190800 29006KT P6SM SCT140
     FM191100 32006KT P6SM SCT150=

USA.gov is the U.S. government's official web portal to all federal, state and local government web resources and services.